Terminal Aerodrome Forecast
Issued by NWS

Home | Current Version | Previous Version | Text Only | Print | Product List | Glossary On
Versions: 1 2 3 4 5 6 7 8 9 10 11 12 13
000
FTUS46 KSTO 231900 AAA
TAFRDD
TAF AMD
KRDD 231900Z 2319/2418 03012G20KT P6SM SKC
     FM232300 02009KT P6SM SKC
     FM241200 VRB03KT P6SM BKN250=

USA.gov is the U.S. government's official web portal to all federal, state and local government web resources and services.